Terminal Aerodrome Forecast
Issued by NWS

Home | Current Version | Previous Version | Text Only | Print | Product List | Glossary Off
Versions: 1 2 3 4 5 6 7 8 9 10 11 12 13 14 15 16 17 18

000
FTUS43 KOAX 171000 AAA
TAFCDR
TAF AMD
KCDR 171004Z 1710/1806 33004KT P6SM BKN200
     FM171200 VRB04KT P6SM BKN007
     FM171500 VRB05KT P6SM SKC=

USA.gov is the U.S. government's official web portal to all federal, state and local government web resources and services.